Time;durP1;ratioP1;P1;durP2;ratioP2;P2;SDS_P1;SDS_P2;PMS_P1;PMS_P2;Temp;Humidity;BMP_temperature;BMP_pressure;BME280_temperature;BME280_humidity;BME280_pressure;Samples;Min_cycle;Max_cycle;Signal;HPM_P1;HPM_P2
2021/01/12 06:02:31;;;;;;;32.87;10.83;;;0.90;97.30;;;;;;5079431;23;21089;-78
2021/01/12 06:04:59;;;;;;;26.07;10.87;;;0.90;97.30;;;;;;4918700;29;20949;-77
2021/01/12 06:07:27;;;;;;;22.27;10.47;;;0.90;97.30;;;;;;4918478;29;20437;-77
2021/01/12 06:09:55;;;;;;;29.73;11.80;;;0.80;97.30;;;;;;4919283;29;20427;-78
2021/01/12 06:12:30;;;;;;;20.97;10.87;;;0.80;97.30;;;;;;4900692;29;20536;-77
2021/01/12 06:14:59;;;;;;;24.23;10.60;;;0.80;97.30;;;;;;4895971;29;20440;-77
2021/01/12 06:17:32;;;;;;;20.90;9.87;;;0.80;97.30;;;;;;4896543;29;20485;-78
2021/01/12 06:20:03;;;;;;;20.77;10.37;;;0.80;97.30;;;;;;4897780;29;20430;-78
2021/01/12 06:22:39;;;;;;;27.13;10.80;;;0.80;97.30;;;;;;4897421;29;20480;-77
2021/01/12 06:25:12;;;;;;;21.47;10.00;;;0.80;97.30;;;;;;4897705;29;20424;-76
2021/01/12 06:27:37;;;;;;;19.77;8.60;;;0.80;97.30;;;;;;4897347;29;20425;-76
2021/01/12 06:30:08;;;;;;;19.97;9.83;;;0.80;97.30;;;;;;4897095;29;20427;-75
2021/01/12 06:32:36;;;;;;;18.53;9.03;;;0.80;97.30;;;;;;4897396;29;20208;-75
2021/01/12 06:35:04;;;;;;;17.03;8.33;;;0.80;97.30;;;;;;4897402;29;20421;-76
2021/01/12 06:37:35;;;;;;;17.67;8.43;;;0.90;97.30;;;;;;4898525;29;20772;-75
2021/01/12 06:40:07;;;;;;;15.73;7.20;;;0.90;97.30;;;;;;4897459;29;20418;-76
2021/01/12 06:42:33;;;;;;;18.30;8.60;;;0.90;97.30;;;;;;4898484;29;20562;-76
2021/01/12 06:44:59;;;;;;;10.67;5.20;;;0.90;97.30;;;;;;4897534;29;20834;-76
2021/01/12 06:47:27;;;;;;;18.07;8.40;;;0.90;97.30;;;;;;4897104;29;20424;-75
2021/01/12 06:50:10;;;;;;;18.60;8.30;;;0.90;97.30;;;;;;4898539;29;20429;-75
2021/01/12 06:52:43;;;;;;;11.87;6.70;;;0.90;97.30;;;;;;4897192;29;20578;-75
2021/01/12 06:55:11;;;;;;;17.73;7.50;;;0.90;97.30;;;;;;4897293;29;20424;-75
2021/01/12 06:57:37;;;;;;;18.00;8.23;;;0.90;97.30;;;;;;4898348;29;20414;-75
2021/01/12 07:00:07;;;;;;;13.07;7.40;;;0.90;97.30;;;;;;4897041;29;20445;-75
2021/01/12 07:02:34;;;;;;;16.63;7.47;;;0.80;97.30;;;;;;4896860;29;20480;-76
2021/01/12 07:05:05;;;;;;;16.43;7.60;;;0.80;97.30;;;;;;4897075;29;20468;-76
2021/01/12 07:07:37;;;;;;;17.20;8.23;;;0.80;97.30;;;;;;4898077;29;20561;-75
2021/01/12 07:10:09;;;;;;;9.70;5.37;;;0.80;97.30;;;;;;4897103;29;20457;-74
2021/01/12 07:12:36;;;;;;;21.90;9.23;;;0.80;97.30;;;;;;4896898;29;20456;-75
2021/01/12 07:15:10;;;;;;;22.30;7.70;;;0.80;97.30;;;;;;4896926;29;20418;-74
2021/01/12 07:17:53;;;;;;;19.73;8.00;;;0.80;97.30;;;;;;4896716;29;20485;-74
2021/01/12 07:20:23;;;;;;;9.77;5.77;;;0.80;97.30;;;;;;4896688;29;20425;-75
2021/01/12 07:23:12;;;;;;;22.60;6.90;;;0.80;97.30;;;;;;4896752;29;20533;-74
2021/01/12 07:25:42;;;;;;;13.53;6.13;;;0.80;97.30;;;;;;4897945;29;20473;-75
2021/01/12 07:28:14;;;;;;;13.03;7.13;;;0.80;97.30;;;;;;4896550;29;20448;-74
2021/01/12 07:30:41;;;;;;;12.90;6.70;;;0.80;97.30;;;;;;4897747;29;20461;-74
2021/01/12 07:33:28;;;;;;;14.73;7.67;;;0.80;97.30;;;;;;4896625;29;20434;-73
2021/01/12 07:35:57;;;;;;;15.73;7.17;;;0.80;97.30;;;;;;4896380;29;20476;-74
2021/01/12 07:38:25;;;;;;;16.83;7.37;;;0.80;97.30;;;;;;4897657;29;20413;-73
2021/01/12 07:40:51;;;;;;;14.23;7.13;;;0.80;97.30;;;;;;4896518;29;20476;-74
2021/01/12 07:43:22;;;;;;;16.13;6.87;;;0.80;97.30;;;;;;4897949;29;20418;-74
2021/01/12 07:45:50;;;;;;;13.97;7.10;;;0.80;97.30;;;;;;4896555;29;20525;-75
2021/01/12 07:48:16;;;;;;;17.07;8.07;;;0.90;97.30;;;;;;4896533;29;20854;-74
2021/01/12 07:50:44;;;;;;;16.27;7.80;;;0.80;97.30;;;;;;4896559;29;20473;-73
2021/01/12 07:53:10;;;;;;;14.80;7.50;;;0.90;97.30;;;;;;4896392;29;20421;-73
2021/01/12 07:55:40;;;;;;;16.80;6.67;;;0.90;97.30;;;;;;4896528;29;20465;-74
2021/01/12 07:58:06;;;;;;;10.83;6.27;;;0.90;97.30;;;;;;4897587;29;20188;-73
2021/01/12 08:00:32;;;;;;;13.70;7.27;;;0.80;97.30;;;;;;4897263;29;20994;-74
2021/01/12 08:02:58;;;;;;;14.10;6.80;;;0.90;97.30;;;;;;4897853;29;20837;-73
2021/01/12 08:05:25;;;;;;;11.70;5.90;;;0.90;97.30;;;;;;4896610;29;20410;-73
2021/01/12 08:08:05;;;;;;;15.60;5.63;;;0.90;97.30;;;;;;4897400;29;20416;-73
2021/01/12 08:10:34;;;;;;;12.17;5.77;;;0.90;97.30;;;;;;4897600;29;20476;-72
2021/01/12 08:13:10;;;;;;;12.40;6.30;;;0.90;97.30;;;;;;4896230;29;20459;-71
2021/01/12 08:15:39;;;;;;;13.40;5.67;;;0.90;97.30;;;;;;4896415;29;20459;-72
2021/01/12 08:18:15;;;;;;;8.73;4.60;;;0.90;97.30;;;;;;4896066;29;20418;-73
2021/01/12 08:20:43;;;;;;;11.10;6.97;;;0.90;97.30;;;;;;4897117;29;20473;-72
2021/01/12 08:23:11;;;;;;;13.90;7.07;;;0.90;97.30;;;;;;4896173;29;20422;-71
2021/01/12 08:25:37;;;;;;;13.23;5.70;;;1.00;97.30;;;;;;4897426;29;20512;-71
2021/01/12 08:28:04;;;;;;;11.40;5.70;;;1.00;97.30;;;;;;4896074;29;20500;-72
2021/01/12 08:30:34;;;;;;;12.63;6.03;;;0.90;97.30;;;;;;4897429;29;20169;-71
2021/01/12 08:33:18;;;;;;;12.70;5.30;;;1.00;97.30;;;;;;4896083;29;20963;-70
2021/01/12 08:36:08;;;;;;;14.67;5.20;;;1.00;97.30;;;;;;4896274;29;20513;-70
2021/01/12 08:38:35;;;;;;;12.47;6.30;;;1.00;97.30;;;;;;4894057;29;20947;-70
2021/01/12 08:41:05;;;;;;;9.60;5.20;;;1.00;97.30;;;;;;4896737;29;20924;-70
2021/01/12 08:43:32;;;;;;;10.47;5.60;;;1.10;97.30;;;;;;4899444;29;21044;-70
2021/01/12 08:46:02;;;;;;;13.87;5.80;;;1.10;97.30;;;;;;4899619;29;20424;-70
2021/01/12 08:48:28;;;;;;;10.13;5.57;;;1.10;97.30;;;;;;4900418;29;20409;-70
2021/01/12 08:50:54;;;;;;;8.73;4.83;;;1.10;97.30;;;;;;4899214;29;20452;-70
2021/01/12 08:53:30;;;;;;;8.77;3.83;;;1.10;97.30;;;;;;4900414;29;20208;-70
2021/01/12 08:56:08;;;;;;;10.30;5.13;;;1.20;97.30;;;;;;4900428;29;20192;-70
2021/01/12 08:58:35;;;;;;;9.77;4.87;;;1.20;97.30;;;;;;4898905;29;20425;-71
2021/01/12 09:01:03;;;;;;;5.97;4.00;;;1.20;97.30;;;;;;4899885;29;20475;-70
2021/01/12 09:03:30;;;;;;;6.90;3.57;;;1.20;97.30;;;;;;4899072;29;20424;-71
2021/01/12 09:05:55;;;;;;;8.97;4.53;;;1.20;97.30;;;;;;4899084;29;20429;-71
2021/01/12 09:08:22;;;;;;;7.80;4.80;;;1.30;97.30;;;;;;4899888;29;20413;-72
2021/01/12 09:10:49;;;;;;;8.10;4.73;;;1.30;97.30;;;;;;4898913;29;20208;-72
2021/01/12 09:13:15;;;;;;;10.20;4.40;;;1.30;97.30;;;;;;4900173;29;20443;-71
2021/01/12 09:15:43;;;;;;;7.70;4.67;;;1.30;97.30;;;;;;4898977;29;20429;-71
2021/01/12 09:18:20;;;;;;;8.17;3.83;;;1.30;97.30;;;;;;4898717;29;20485;-71
2021/01/12 09:21:08;;;;;;;7.67;4.00;;;1.40;97.30;;;;;;4898650;29;20480;-73
2021/01/12 09:23:37;;;;;;;7.70;4.00;;;1.40;97.30;;;;;;4898798;29;20431;-71
2021/01/12 09:26:03;;;;;;;7.83;4.33;;;1.40;97.30;;;;;;4898430;29;20472;-73
2021/01/12 09:28:31;;;;;;;7.13;3.47;;;1.40;97.30;;;;;;4898716;29;20416;-72
2021/01/12 09:31:11;;;;;;;6.57;3.53;;;1.40;97.30;;;;;;4898660;29;20453;-72
2021/01/12 09:33:38;;;;;;;6.87;3.97;;;1.50;97.30;;;;;;4898611;29;20421;-73
2021/01/12 09:36:06;;;;;;;6.50;3.50;;;1.50;97.30;;;;;;4898562;29;20927;-73
2021/01/12 09:38:38;;;;;;;5.27;3.00;;;1.50;97.30;;;;;;4898356;29;20421;-73
2021/01/12 09:41:04;;;;;;;4.20;3.07;;;1.60;97.30;;;;;;4898389;29;20520;-73
2021/01/12 09:43:30;;;;;;;5.77;3.70;;;1.60;97.30;;;;;;4898380;29;20421;-74
2021/01/12 09:45:56;;;;;;;6.00;4.07;;;1.60;97.30;;;;;;4898403;29;20424;-74
2021/01/12 09:48:23;;;;;;;6.20;3.30;;;1.60;97.30;;;;;;4898174;29;20473;-73
2021/01/12 09:50:49;;;;;;;10.57;3.43;;;1.70;97.30;;;;;;4899503;29;20430;-74
2021/01/12 09:53:15;;;;;;;5.00;3.40;;;1.70;97.30;;;;;;4899504;29;20445;-74
2021/01/12 09:55:41;;;;;;;4.37;3.07;;;1.70;97.30;;;;;;4898388;29;20425;-73
2021/01/12 09:58:08;;;;;;;5.03;3.27;;;1.80;97.30;;;;;;4897996;29;20942;-74
2021/01/12 10:00:33;;;;;;;5.40;3.80;;;1.80;97.30;;;;;;4898824;29;20532;-74
2021/01/12 10:02:59;;;;;;;5.90;3.67;;;1.80;97.30;;;;;;4897982;29;20542;-74
2021/01/12 10:05:24;;;;;;;7.53;3.63;;;1.80;97.30;;;;;;4898134;29;20191;-73
2021/01/12 10:07:50;;;;;;;6.60;3.40;;;1.80;97.30;;;;;;4897625;29;20181;-76
2021/01/12 10:10:16;;;;;;;4.47;3.30;;;1.90;97.30;;;;;;4897781;29;20647;-76
2021/01/12 10:12:42;;;;;;;5.53;3.00;;;1.90;97.30;;;;;;4898122;29;20181;-73
2021/01/12 10:15:08;;;;;;;5.40;3.60;;;2.00;97.30;;;;;;4898723;29;20177;-75
2021/01/12 10:17:34;;;;;;;5.33;3.60;;;2.00;97.30;;;;;;4898199;29;20663;-75
2021/01/12 10:20:00;;;;;;;3.43;2.93;;;2.10;97.30;;;;;;4899060;29;20425;-75
2021/01/12 10:22:26;;;;;;;5.50;3.50;;;2.10;97.30;;;;;;4897284;29;20469;-75
2021/01/12 10:24:55;;;;;;;3.77;2.60;;;2.10;97.30;;;;;;4898331;29;20237;-74
2021/01/12 10:27:21;;;;;;;5.63;2.50;;;2.20;97.30;;;;;;4898571;29;20421;-74
2021/01/12 10:29:47;;;;;;;5.20;2.90;;;2.20;97.30;;;;;;4898747;29;20759;-73
2021/01/12 10:32:13;;;;;;;5.43;3.00;;;2.20;97.30;;;;;;4898543;29;20433;-74
2021/01/12 10:34:39;;;;;;;5.70;3.27;;;2.20;97.30;;;;;;4898739;29;20481;-73
2021/01/12 10:37:05;;;;;;;5.40;3.50;;;2.20;97.30;;;;;;4897372;29;20204;-73
2021/01/12 10:39:31;;;;;;;9.50;3.63;;;2.10;97.30;;;;;;4898414;29;20920;-74
2021/01/12 10:41:57;;;;;;;4.13;2.87;;;2.10;97.30;;;;;;4898726;29;20205;-73
2021/01/12 10:44:23;;;;;;;5.27;3.67;;;2.10;97.30;;;;;;4897457;29;20229;-73
2021/01/12 10:46:58;;;;;;;10.60;4.30;;;2.20;97.30;;;;;;4897671;29;20421;-74
2021/01/12 10:49:24;;;;;;;19.63;11.67;;;2.30;97.30;;;;;;4898391;29;20421;-76
2021/01/12 10:52:04;;;;;;;5.27;3.40;;;2.30;97.30;;;;;;4898735;29;21012;-74
2021/01/12 10:54:30;;;;;;;3.90;2.30;;;2.30;97.30;;;;;;4898621;29;20445;-80
2021/01/12 10:56:59;;;;;;;3.03;2.70;;;2.40;97.30;;;;;;4898929;29;20426;-76
2021/01/12 10:59:29;;;;;;;2.77;2.10;;;2.40;97.30;;;;;;4899682;29;20930;-79
2021/01/12 11:02:03;;;;;;;4.23;2.50;;;2.40;97.30;;;;;;4897182;29;20484;-76
2021/01/12 11:04:29;;;;;;;2.50;2.27;;;2.40;97.30;;;;;;4897105;29;20421;-75
2021/01/12 11:06:57;;;;;;;2.40;2.10;;;2.40;97.30;;;;;;4896727;29;20803;-75
2021/01/12 11:09:23;;;;;;;2.37;1.90;;;2.40;97.30;;;;;;4898482;29;20837;-82
2021/01/12 11:11:49;;;;;;;3.03;2.13;;;2.40;97.30;;;;;;4898757;29;20449;-78
2021/01/12 11:14:18;;;;;;;2.47;2.03;;;2.40;97.30;;;;;;4897800;29;20770;-71
2021/01/12 11:16:45;;;;;;;2.97;2.20;;;2.40;97.30;;;;;;4896483;29;20437;-69
2021/01/12 11:19:12;;;;;;;2.00;1.83;;;2.40;97.30;;;;;;4897536;29;20517;-69
2021/01/12 11:21:47;;;;;;;3.60;2.23;;;2.40;97.30;;;;;;4896903;29;20469;-69
2021/01/12 11:24:22;;;;;;;7.00;2.50;;;2.50;97.30;;;;;;4897441;29;20417;-70
2021/01/12 11:26:53;;;;;;;2.33;2.07;;;2.50;97.30;;;;;;4896134;29;20515;-70
2021/01/12 11:29:25;;;;;;;2.63;1.97;;;2.50;97.30;;;;;;4897874;29;20424;-70
2021/01/12 11:31:50;;;;;;;3.23;2.17;;;2.40;97.30;;;;;;4896096;29;20452;-70
2021/01/12 11:34:16;;;;;;;3.70;2.63;;;2.40;97.30;;;;;;4897812;29;20421;-71
2021/01/12 11:36:44;;;;;;;2.17;1.90;;;2.40;97.30;;;;;;4897370;29;20416;-70
2021/01/12 11:39:13;;;;;;;2.20;2.00;;;2.40;97.30;;;;;;4896087;29;20232;-70
2021/01/12 11:41:47;;;;;;;4.00;2.00;;;2.40;97.30;;;;;;4896565;29;20485;-70
2021/01/12 11:44:13;;;;;;;3.13;1.90;;;2.40;97.30;;;;;;4896120;29;20417;-70
2021/01/12 11:46:39;;;;;;;1.97;1.70;;;2.40;97.30;;;;;;4896913;29;20413;-70
2021/01/12 11:49:05;;;;;;;5.63;3.17;;;2.40;97.30;;;;;;4897361;29;20458;-70
2021/01/12 11:51:49;;;;;;;8.73;4.20;;;2.40;97.30;;;;;;4897374;29;20253;-70
2021/01/12 11:54:15;;;;;;;3.03;2.33;;;2.40;97.30;;;;;;4896111;29;20853;-70
2021/01/12 11:56:47;;;;;;;1.93;1.70;;;2.40;97.30;;;;;;4896973;29;20413;-70
2021/01/12 11:59:13;;;;;;;8.03;4.37;;;2.40;97.30;;;;;;4897027;29;20425;-71
2021/01/12 12:01:49;;;;;;;5.63;3.27;;;2.40;97.30;;;;;;4896974;29;20548;-71
2021/01/12 12:04:16;;;;;;;2.30;1.70;;;2.40;97.30;;;;;;4895918;29;20715;-70
2021/01/12 12:06:50;;;;;;;2.87;2.40;;;2.40;97.30;;;;;;4896230;29;20818;-71
2021/01/12 12:09:17;;;;;;;3.00;2.10;;;2.40;97.30;;;;;;4895891;29;20441;-71
2021/01/12 12:11:43;;;;;;;3.27;2.27;;;2.40;97.30;;;;;;4897257;29;20440;-70
2021/01/12 12:14:09;;;;;;;4.00;2.77;;;2.40;97.30;;;;;;4897509;29;20793;-71
2021/01/12 12:16:35;;;;;;;3.30;2.20;;;2.40;97.30;;;;;;4899137;29;20421;-71
2021/01/12 12:19:02;;;;;;;2.20;1.93;;;2.50;97.30;;;;;;4899681;29;20437;-71
2021/01/12 12:21:28;;;;;;;2.20;2.00;;;2.50;97.30;;;;;;4899344;29;20476;-71
2021/01/12 12:24:03;;;;;;;3.57;1.87;;;2.50;97.30;;;;;;4900250;29;20427;-71
2021/01/12 12:26:29;;;;;;;2.80;1.80;;;2.50;97.30;;;;;;4899505;29;20425;-70
2021/01/12 12:28:55;;;;;;;2.07;1.97;;;2.50;97.30;;;;;;4900816;29;20426;-71
2021/01/12 12:31:20;;;;;;;3.43;2.10;;;2.50;97.30;;;;;;4899331;29;20226;-71
2021/01/12 12:33:46;;;;;;;2.97;2.00;;;2.60;97.30;;;;;;4900688;29;20666;-71
2021/01/12 12:36:15;;;;;;;3.57;2.07;;;2.60;97.30;;;;;;4899611;29;20677;-71
2021/01/12 12:38:41;;;;;;;2.67;2.00;;;2.60;97.30;;;;;;4899578;29;20433;-72
2021/01/12 12:41:12;;;;;;;2.30;2.03;;;2.60;97.30;;;;;;4899338;29;20894;-71
2021/01/12 12:43:39;;;;;;;4.23;1.70;;;2.60;97.30;;;;;;4899477;29;20413;-72
2021/01/12 12:46:05;;;;;;;2.20;1.83;;;2.60;97.30;;;;;;4900184;29;20781;-70
2021/01/12 12:48:32;;;;;;;3.07;2.00;;;2.60;97.30;;;;;;4900620;29;20420;-71
2021/01/12 12:50:59;;;;;;;3.27;2.30;;;2.60;97.30;;;;;;4900334;29;20513;-71
2021/01/12 12:53:25;;;;;;;3.10;2.80;;;2.60;97.30;;;;;;4898945;29;20472;-70
2021/01/12 12:55:51;;;;;;;2.83;2.07;;;2.60;97.30;;;;;;4900437;29;20500;-70
2021/01/12 12:58:17;;;;;;;2.60;1.70;;;2.60;97.30;;;;;;4898553;29;21056;-70
2021/01/12 13:00:42;;;;;;;5.53;1.80;;;2.70;97.30;;;;;;4898578;29;20253;-71
2021/01/12 13:03:08;;;;;;;2.47;1.50;;;2.70;97.30;;;;;;4900306;29;20169;-70
2021/01/12 13:05:38;;;;;;;3.77;2.00;;;2.70;97.30;;;;;;4900415;29;20252;-71
2021/01/12 13:08:04;;;;;;;2.83;2.23;;;2.70;97.30;;;;;;4898767;29;20935;-71
2021/01/12 13:10:30;;;;;;;1.70;1.60;;;2.70;97.30;;;;;;4900165;29;20410;-70
2021/01/12 13:12:56;;;;;;;4.50;2.17;;;2.70;97.30;;;;;;4900106;29;20410;-70
2021/01/12 13:15:22;;;;;;;3.93;1.90;;;2.60;97.30;;;;;;4898887;29;20188;-71
2021/01/12 13:17:53;;;;;;;2.13;1.97;;;2.60;97.30;;;;;;4898563;29;20927;-71
2021/01/12 13:20:19;;;;;;;2.17;1.60;;;2.60;97.30;;;;;;4899742;29;20428;-72
2021/01/12 13:22:45;;;;;;;1.60;1.43;;;2.60;97.30;;;;;;4899456;29;21512;-71
2021/01/12 13:25:12;;;;;;;2.83;1.90;;;2.60;97.30;;;;;;4898933;29;20424;-70
2021/01/12 13:27:38;;;;;;;41.27;9.67;;;2.60;97.30;;;;;;4897824;29;20477;-71
2021/01/12 13:30:07;;;;;;;8.03;4.30;;;2.60;97.30;;;;;;4899889;29;20623;-71
2021/01/12 13:32:48;;;;;;;8.87;5.00;;;2.60;97.30;;;;;;4899666;29;20437;-71
2021/01/12 13:35:17;;;;;;;13.03;6.83;;;2.60;97.30;;;;;;4898119;29;20425;-71
2021/01/12 13:37:43;;;;;;;16.30;5.30;;;2.60;97.30;;;;;;4899586;29;20489;-70
2021/01/12 13:40:11;;;;;;;23.57;10.00;;;2.50;97.30;;;;;;4898559;29;20932;-70
2021/01/12 13:42:41;;;;;;;11.20;7.10;;;2.60;97.30;;;;;;4898193;29;20212;-71
2021/01/12 13:45:07;;;;;;;5.60;3.50;;;2.50;97.30;;;;;;4899787;29;20417;-71
2021/01/12 13:47:33;;;;;;;5.57;2.80;;;2.50;97.30;;;;;;4899083;29;20458;-71
2021/01/12 13:49:59;;;;;;;3.60;2.43;;;2.50;97.30;;;;;;4898270;29;20414;-71
2021/01/12 13:52:26;;;;;;;2.90;1.90;;;2.50;97.30;;;;;;4899242;29;20657;-71
2021/01/12 13:54:52;;;;;;;3.13;2.00;;;2.50;97.30;;;;;;4899479;29;20206;-71
2021/01/12 13:57:28;;;;;;;5.30;3.80;;;2.50;97.30;;;;;;4897824;29;20426;-70
2021/01/12 13:59:56;;;;;;;2.20;2.07;;;2.60;97.30;;;;;;4898952;29;20762;-71
2021/01/12 14:02:24;;;;;;;3.07;2.30;;;2.50;97.30;;;;;;4898932;29;20469;-71
2021/01/12 14:04:50;;;;;;;4.20;2.60;;;2.60;97.30;;;;;;4898293;29;20508;-71
2021/01/12 14:07:17;;;;;;;5.07;2.77;;;2.60;97.30;;;;;;4897201;29;21058;-70
2021/01/12 14:09:42;;;;;;;4.53;2.87;;;2.60;97.30;;;;;;4899085;29;20912;-71
2021/01/12 14:12:12;;;;;;;4.93;3.63;;;2.60;97.30;;;;;;4897978;29;20449;-71
2021/01/12 14:14:39;;;;;;;4.50;3.37;;;2.60;97.30;;;;;;4897900;29;20231;-72
2021/01/12 14:17:06;;;;;;;7.00;5.30;;;2.60;97.30;;;;;;4898985;29;20426;-72
2021/01/12 14:19:32;;;;;;;3.67;3.07;;;2.70;97.30;;;;;;4899149;29;20421;-71
2021/01/12 14:22:00;;;;;;;4.20;3.07;;;2.70;97.30;;;;;;4898993;29;20481;-71
2021/01/12 14:24:26;;;;;;;7.10;3.40;;;2.70;97.30;;;;;;4897726;29;20425;-71
2021/01/12 14:26:53;;;;;;;4.00;2.50;;;2.70;97.30;;;;;;4897650;29;20453;-72
2021/01/12 14:29:19;;;;;;;4.47;2.60;;;2.80;97.30;;;;;;4897532;29;20422;-71
2021/01/12 14:31:45;;;;;;;3.10;2.20;;;2.90;97.30;;;;;;4898983;29;20436;-71
2021/01/12 14:34:11;;;;;;;3.60;2.70;;;2.90;97.30;;;;;;4899028;29;20474;-71
2021/01/12 14:36:39;;;;;;;5.53;4.40;;;3.10;97.30;;;;;;4897650;29;20440;-70
2021/01/12 14:39:21;;;;;;;3.13;2.50;;;3.10;97.30;;;;;;4898024;29;20429;-71
2021/01/12 14:41:48;;;;;;;4.57;2.00;;;2.90;97.30;;;;;;4897393;29;20465;-73
2021/01/12 14:44:15;;;;;;;3.07;2.50;;;2.80;97.30;;;;;;4897547;29;20456;-71
2021/01/12 14:46:48;;;;;;;2.47;2.17;;;2.70;97.30;;;;;;4898786;29;20417;-73
2021/01/12 14:49:14;;;;;;;3.80;2.60;;;2.70;97.30;;;;;;4895689;29;20504;-74
2021/01/12 14:51:40;;;;;;;2.63;2.30;;;2.70;97.30;;;;;;4898667;29;20441;-71
2021/01/12 14:54:05;;;;;;;3.67;3.00;;;2.70;97.30;;;;;;4895909;29;20437;-71
2021/01/12 14:56:34;;;;;;;3.87;2.30;;;2.60;97.30;;;;;;4898168;29;20181;-71
2021/01/12 14:59:00;;;;;;;3.00;2.00;;;2.50;97.30;;;;;;4897331;29;20244;-74
2021/01/12 15:01:46;;;;;;;6.00;2.90;;;2.40;97.30;;;;;;4896951;29;20536;-73
2021/01/12 15:04:12;;;;;;;3.67;2.00;;;2.40;97.30;;;;;;4895644;29;20433;-71
2021/01/12 15:06:39;;;;;;;2.43;1.83;;;2.40;97.30;;;;;;4897203;29;20449;-72
2021/01/12 15:09:09;;;;;;;6.80;2.60;;;2.30;97.30;;;;;;4897341;29;20809;-75
2021/01/12 15:11:35;;;;;;;3.63;2.00;;;2.40;97.30;;;;;;4897226;29;20441;-76
2021/01/12 15:14:01;;;;;;;4.80;2.03;;;2.40;97.30;;;;;;4897160;29;20425;-77
2021/01/12 15:16:27;;;;;;;1.63;1.43;;;2.30;97.30;;;;;;4896546;29;20464;-73
2021/01/12 15:18:53;;;;;;;3.10;2.10;;;2.40;97.30;;;;;;4896645;29;20421;-72
2021/01/12 15:21:18;;;;;;;4.03;1.77;;;2.40;97.30;;;;;;4897633;29;20241;-71
2021/01/12 15:23:46;;;;;;;2.30;1.73;;;2.40;97.30;;;;;;4896269;29;20618;-71
2021/01/12 15:26:13;;;;;;;15.83;2.40;;;2.50;97.30;;;;;;4897043;29;20425;-72
2021/01/12 15:28:40;;;;;;;5.10;2.30;;;2.50;97.30;;;;;;4896417;29;20441;-72
2021/01/12 15:31:06;;;;;;;10.00;2.67;;;2.40;97.30;;;;;;4898060;29;20932;-72
2021/01/12 15:33:32;;;;;;;5.03;2.83;;;2.50;97.30;;;;;;4898239;29;20444;-72
2021/01/12 15:35:58;;;;;;;3.37;1.90;;;2.50;97.30;;;;;;4896736;29;20469;-71
2021/01/12 15:38:24;;;;;;;10.53;2.80;;;2.50;97.30;;;;;;4896786;29;20851;-77
2021/01/12 15:40:51;;;;;;;9.07;2.10;;;2.50;97.30;;;;;;4896824;29;20209;-76
2021/01/12 15:43:18;;;;;;;4.07;1.80;;;2.50;97.30;;;;;;4897149;29;20445;-73
2021/01/12 15:45:44;;;;;;;5.50;1.80;;;2.50;97.30;;;;;;4897820;29;20452;-72
2021/01/12 15:48:13;;;;;;;9.03;1.73;;;2.50;97.30;;;;;;4896654;29;20436;-74
2021/01/12 15:50:39;;;;;;;3.00;2.17;;;2.50;97.30;;;;;;4900558;29;20440;-71
2021/01/12 15:53:05;;;;;;;6.03;2.10;;;2.60;97.30;;;;;;4903117;29;20417;-71
2021/01/12 15:55:32;;;;;;;80.43;34.80;;;2.60;97.30;;;;;;4902103;29;20189;-73
2021/01/12 15:58:01;;;;;;;2.43;2.00;;;2.60;97.30;;;;;;4901734;29;20212;-76
2021/01/12 16:00:28;;;;;;;6.87;3.70;;;2.40;97.30;;;;;;4901501;29;20433;-72
2021/01/12 16:02:55;;;;;;;7.03;2.40;;;2.30;97.30;;;;;;4900528;29;20472;-71
2021/01/12 16:05:22;;;;;;;7.90;3.40;;;2.20;97.30;;;;;;4901228;29;20413;-73
2021/01/12 16:07:52;;;;;;;6.50;2.93;;;2.20;97.30;;;;;;4900277;29;20418;-72
2021/01/12 16:10:20;;;;;;;8.73;4.63;;;2.30;97.30;;;;;;4900301;29;20429;-74
2021/01/12 16:12:49;;;;;;;9.87;5.10;;;2.40;97.30;;;;;;4900268;29;20440;-73
2021/01/12 16:15:17;;;;;;;4.47;2.70;;;2.40;97.30;;;;;;4900073;29;20950;-73
2021/01/12 16:17:45;;;;;;;8.83;3.23;;;2.40;97.30;;;;;;4900027;29;20520;-73
2021/01/12 16:20:13;;;;;;;11.57;3.07;;;2.40;97.30;;;;;;4901378;29;20509;-72
2021/01/12 16:22:42;;;;;;;7.47;2.63;;;2.30;97.30;;;;;;4899857;29;20484;-73
2021/01/12 16:25:09;;;;;;;7.90;5.10;;;2.30;97.30;;;;;;4900325;29;20422;-72
2021/01/12 16:27:36;;;;;;;11.10;3.70;;;2.30;97.30;;;;;;4880954;29;20913;-72
2021/01/12 16:30:05;;;;;;;10.53;4.70;;;2.30;97.30;;;;;;4883228;29;20433;-72
2021/01/12 16:32:31;;;;;;;10.33;3.03;;;2.30;97.30;;;;;;4882157;29;20442;-71
2021/01/12 16:34:58;;;;;;;4.67;3.70;;;2.20;97.30;;;;;;4897934;29;20438;-72
2021/01/12 16:37:24;;;;;;;27.87;20.40;;;2.20;97.30;;;;;;4903304;29;20523;-72
2021/01/12 16:39:53;;;;;;;9.10;5.47;;;2.20;97.30;;;;;;4901705;29;20452;-71
2021/01/12 16:42:19;;;;;;;24.30;8.27;;;2.30;97.30;;;;;;4901024;29;20480;-73
2021/01/12 16:44:55;;;;;;;6.43;4.13;;;2.20;97.30;;;;;;4901853;29;20931;-73
2021/01/12 16:47:23;;;;;;;4.13;2.57;;;2.30;97.30;;;;;;4901753;29;20496;-73
2021/01/12 16:49:49;;;;;;;8.70;3.17;;;2.20;97.30;;;;;;4900290;29;21295;-72
2021/01/12 16:52:15;;;;;;;12.50;2.90;;;2.20;97.30;;;;;;4899746;29;20452;-72
2021/01/12 16:54:40;;;;;;;4.80;2.40;;;2.10;97.30;;;;;;4900801;29;20425;-72
2021/01/12 16:57:09;;;;;;;3.37;2.07;;;2.10;97.30;;;;;;4900387;29;20213;-73
2021/01/12 16:59:58;;;;;;;7.57;5.20;;;2.00;97.30;;;;;;4900672;29;20181;-74
2021/01/12 17:02:43;;;;;;;5.80;2.60;;;1.90;97.30;;;;;;4898881;29;20488;-72
2021/01/12 17:05:17;;;;;;;4.70;2.83;;;2.00;97.30;;;;;;4900106;29;20429;-72
2021/01/12 17:07:45;;;;;;;24.57;4.00;;;2.00;97.30;;;;;;4881889;29;20410;-72
2021/01/12 17:10:13;;;;;;;3.40;2.00;;;2.00;97.30;;;;;;4880427;29;20433;-71
2021/01/12 17:12:40;;;;;;;10.93;2.90;;;1.90;97.30;;;;;;4881114;29;20438;-71
2021/01/12 17:15:08;;;;;;;3.83;2.50;;;1.80;97.30;;;;;;4880597;29;20441;-72
2021/01/12 17:17:36;;;;;;;3.83;2.40;;;1.80;97.30;;;;;;4898591;29;20519;-71
2021/01/12 17:20:04;;;;;;;5.13;3.13;;;1.70;97.30;;;;;;4899476;29;20504;-72
2021/01/12 17:22:36;;;;;;;4.93;2.80;;;1.70;97.30;;;;;;4899930;29;20853;-71
2021/01/12 17:25:04;;;;;;;6.47;1.93;;;1.70;97.30;;;;;;4900316;29;20413;-72
2021/01/12 17:27:36;;;;;;;4.53;2.13;;;1.70;97.30;;;;;;4900263;29;20417;-71
2021/01/12 17:30:03;;;;;;;6.23;2.20;;;1.60;97.30;;;;;;4900232;29;20413;-71
2021/01/12 17:32:29;;;;;;;8.57;2.37;;;1.60;97.30;;;;;;4898713;29;20441;-72
2021/01/12 17:34:54;;;;;;;7.13;3.13;;;1.50;97.30;;;;;;4899450;29;21023;-71
2021/01/12 17:37:22;;;;;;;3.93;3.00;;;1.50;97.30;;;;;;4899698;29;20181;-71
2021/01/12 17:39:53;;;;;;;5.30;2.60;;;1.50;97.30;;;;;;4899933;29;20459;-71
2021/01/12 17:42:20;;;;;;;3.70;2.40;;;1.50;97.30;;;;;;4898859;29;20548;-71
2021/01/12 17:44:46;;;;;;;3.90;3.10;;;1.40;97.30;;;;;;4898815;29;20418;-71
2021/01/12 17:47:13;;;;;;;7.70;4.80;;;1.30;97.30;;;;;;4898167;29;20445;-71
2021/01/12 17:49:40;;;;;;;5.03;3.40;;;1.30;97.30;;;;;;4897272;29;20567;-72
2021/01/12 17:52:11;;;;;;;9.27;4.07;;;1.30;97.30;;;;;;4898549;29;21027;-71
2021/01/12 17:54:46;;;;;;;6.23;4.40;;;1.20;97.30;;;;;;4898597;29;20477;-72
2021/01/12 17:57:11;;;;;;;27.20;8.77;;;1.20;97.30;;;;;;4899542;29;20445;-72
2021/01/12 17:59:39;;;;;;;27.97;10.90;;;1.20;97.30;;;;;;4899882;29;20413;-71
2021/01/12 18:02:10;;;;;;;19.37;6.70;;;1.10;97.30;;;;;;4899415;29;20212;-71
2021/01/12 18:04:37;;;;;;;6.27;3.00;;;1.10;97.30;;;;;;4898354;29;20950;-71
2021/01/12 18:07:05;;;;;;;2.50;2.10;;;1.10;97.30;;;;;;4898342;29;20432;-71
2021/01/12 18:09:33;;;;;;;7.30;2.60;;;1.20;97.30;;;;;;4899088;29;20469;-71
2021/01/12 18:12:04;;;;;;;3.77;2.80;;;1.20;97.30;;;;;;4899255;29;20484;-71
2021/01/12 18:14:36;;;;;;;6.43;2.77;;;1.10;97.30;;;;;;4898654;29;20438;-71
2021/01/12 18:17:04;;;;;;;4.33;2.90;;;1.20;97.30;;;;;;4897975;29;20421;-71
2021/01/12 18:19:30;;;;;;;42.83;14.17;;;1.20;97.30;;;;;;4897889;29;20437;-72
2021/01/12 18:21:56;;;;;;;5.17;3.40;;;1.30;97.30;;;;;;4899519;29;20477;-70
2021/01/12 18:24:24;;;;;;;6.70;3.20;;;1.30;97.30;;;;;;4899214;29;21313;-71
2021/01/12 18:26:52;;;;;;;5.80;2.80;;;1.30;97.30;;;;;;4897574;29;20426;-71
2021/01/12 18:29:19;;;;;;;9.47;3.43;;;1.40;97.30;;;;;;4898241;29;20517;-71
2021/01/12 18:31:48;;;;;;;14.87;3.30;;;1.40;97.30;;;;;;4897880;29;20452;-71
2021/01/12 18:34:15;;;;;;;13.80;5.20;;;1.50;97.30;;;;;;4897680;29;20570;-70
2021/01/12 18:36:43;;;;;;;6.27;2.90;;;1.50;97.30;;;;;;4897974;29;20436;-71
2021/01/12 18:39:09;;;;;;;5.53;3.00;;;1.50;97.30;;;;;;4898850;29;20421;-71
2021/01/12 18:41:38;;;;;;;11.53;3.53;;;1.60;97.30;;;;;;4898595;29;20656;-70
2021/01/12 18:44:10;;;;;;;8.37;3.70;;;1.70;97.30;;;;;;4899442;29;20424;-71
2021/01/12 18:46:39;;;;;;;4.87;2.80;;;1.70;97.30;;;;;;4897785;29;20432;-71
2021/01/12 18:49:06;;;;;;;5.40;3.00;;;1.70;97.30;;;;;;4897442;29;20832;-71
2021/01/12 18:51:34;;;;;;;6.53;3.50;;;1.70;97.30;;;;;;4897492;29;20437;-72
2021/01/12 18:54:01;;;;;;;8.40;5.07;;;1.80;97.30;;;;;;4899004;29;20424;-71
2021/01/12 18:56:28;;;;;;;7.27;4.63;;;1.80;97.30;;;;;;4898196;29;20424;-71
2021/01/12 18:58:54;;;;;;;8.37;5.50;;;1.90;97.30;;;;;;4898750;29;20428;-70
2021/01/12 19:01:20;;;;;;;10.93;4.60;;;1.90;97.30;;;;;;4897532;29;20919;-71